Agios_nektarios — SW6453 — position and weather

sailwx.info

Track history (hours):
 
Tides and Currents Weather Stations Pressure Air Temp Water Temp Dewpoint Dewpoint Depression Visibility Wind Speed Wind Dir Waves Ship Positions

Agios_nektarios

Last reported at 2018-Aug-21 00:49 UTC. Time now 2018-Aug-21 01:56 UTC.
Position N 38°02' E 023°35'.

Length 53 m; draft 4.9 m.

Type: Tanker. MMSI: 237183800.

Date/timePositionNaut miles runAvg speedWind from/ knotsBaromVisibWave heightAir tempDewpointWater temp
2018-Aug-21 00:49N 38°02' E 023°35'0 0.0
2018-Aug-20 23:06N 38°02' E 023°35'0 0.7
2018-Aug-20 23:01N 38°02' E 023°35'0 3.1
2018-Aug-20 23:00N 38°02' E 023°35'1 0.1
2018-Aug-20 17:35N 38°02' E 023°36'0 0.6
2018-Aug-20 17:29N 38°02' E 023°36'3 6.2
2018-Aug-20 17:03N 37°60' E 023°33'0 7.1
2018-Aug-20 17:00N 37°59' E 023°33'3 5.7
2018-Aug-20 16:30N 37°57' E 023°35'3 5.3
2018-Aug-20 16:02N 37°56' E 023°38'0 0.0
2018-Aug-20 15:59N 37°56' E 023°38'0 0.0
2018-Aug-20 15:29N 37°56' E 023°38'0 0.0
2018-Aug-20 15:02N 37°56' E 023°38'0 0.0
2018-Aug-20 14:59N 37°56' E 023°38'0 0.0
2018-Aug-20 13:59N 37°56' E 023°38'0 0.0
2018-Aug-20 13:29N 37°56' E 023°38'0 0.0
2018-Aug-20 13:02N 37°56' E 023°38'0 0.0
2018-Aug-20 12:59N 37°56' E 023°38'0 0.0
2018-Aug-20 12:29N 37°56' E 023°38'0 0.0
2018-Aug-20 12:02N 37°56' E 023°38'0 0.1
2018-Aug-20 11:59N 37°56' E 023°38'0 0.0
2018-Aug-20 11:29N 37°56' E 023°38'0 0.0
2018-Aug-20 11:03N 37°56' E 023°38'0 0.1
2018-Aug-20 11:00N 37°56' E 023°38'0 0.3
2018-Aug-20 10:28N 37°56' E 023°38'0 0.0
2018-Aug-20 10:01N 37°56' E 023°38'0 0.2
2018-Aug-20 09:58N 37°56' E 023°38'0 0.0
2018-Aug-20 09:28N 37°56' E 023°38'0 0.0
2018-Aug-20 09:01N 37°56' E 023°38'0 0.0
2018-Aug-20 08:58N 37°56' E 023°38'0 0.0
2018-Aug-20 08:28N 37°56' E 023°38'0 0.0
2018-Aug-20 08:01N 37°56' E 023°38'0 0.1
2018-Aug-20 07:58N 37°56' E 023°38'1 1.7
2018-Aug-20 07:31N 37°56' E 023°37'1 2.1
2018-Aug-20 06:58N 37°58' E 023°37'0 0.0
2018-Aug-20 06:30N 37°58' E 023°37'0 0.0
2018-Aug-20 06:03N 37°58' E 023°37'0 0.1
2018-Aug-20 06:00N 37°58' E 023°37'0 0.0
2018-Aug-20 05:30N 37°58' E 023°37'0 0.0
2018-Aug-20 05:03N 37°58' E 023°37'0 0.2
2018-Aug-20 05:00N 37°58' E 023°37'0 0.0
2018-Aug-20 04:45N 37°58' E 023°37'0 0.0
2018-Aug-20 04:24N 37°58' E 023°37'0 0.0
2018-Aug-20 04:00N 37°58' E 023°37'0 0.0
2018-Aug-20 03:30N 37°58' E 023°37'0 0.0
2018-Aug-20 03:00N 37°58' E 023°37'0 0.0
2018-Aug-20 02:30N 37°58' E 023°37'0 0.0
2018-Aug-20 02:00N 37°58' E 023°37'0 0.0
2018-Aug-20 01:30N 37°58' E 023°37'0 0.0
2018-Aug-20 01:00N 37°58' E 023°37'0 0.0
2018-Aug-20 00:30N 37°58' E 023°37'0 0.0
2018-Aug-20 00:00N 37°58' E 023°37'0 0.0
2018-Aug-19 23:30N 37°58' E 023°37'0 0.0
2018-Aug-19 23:00N 37°58' E 023°37'0 0.0
2018-Aug-19 22:30N 37°58' E 023°37'0 0.0
2018-Aug-19 22:00N 37°58' E 023°37'0 0.0
2018-Aug-19 21:30N 37°58' E 023°37'0 0.0
2018-Aug-19 21:00N 37°58' E 023°37'0 0.0
2018-Aug-19 20:30N 37°58' E 023°37'0 0.0
2018-Aug-19 20:00N 37°58' E 023°37'0 0.0
2018-Aug-19 19:30N 37°58' E 023°37'0 0.0
2018-Aug-19 19:00N 37°58' E 023°37'0 0.0
2018-Aug-19 18:30N 37°58' E 023°37'0 0.0
2018-Aug-19 18:00N 37°58' E 023°37'0 0.0
2018-Aug-19 17:30N 37°58' E 023°37'0 0.0
2018-Aug-19 17:00N 37°58' E 023°37'0 0.0
2018-Aug-19 16:30N 37°58' E 023°37'0 0.0
2018-Aug-19 15:57N 37°58' E 023°37'0 0.5
2018-Aug-19 15:30N 37°57' E 023°36'2 5.0
2018-Aug-19 15:00N 37°57' E 023°33'3 5.4
2018-Aug-19 14:30N 38°00' E 023°33'3 4.3
2018-Aug-19 13:54N 38°02' E 023°31'0 0.0
2018-Aug-19 13:15N 38°02' E 023°31'0 0.0
2018-Aug-19 11:45N 38°02' E 023°31'0 0.0
2018-Aug-19 10:40N 38°02' E 023°31'0 0.4
2018-Aug-19 10:29N 38°02' E 023°31'2 4.2
2018-Aug-19 10:00N 38°00' E 023°32'3 5.4
2018-Aug-19 09:30N 37°58' E 023°33'3 5.6
2018-Aug-19 09:00N 37°57' E 023°36'2 3.2
2018-Aug-19 08:30N 37°56' E 023°38'0 0.0
2018-Aug-19 07:59N 37°56' E 023°38'0 0.0
2018-Aug-19 07:28N 37°56' E 023°38'0 0.0
2018-Aug-19 06:58N 37°56' E 023°38'0 0.0
2018-Aug-19 06:28N 37°56' E 023°38'0 0.0
2018-Aug-19 05:58N 37°56' E 023°38'0 0.0
2018-Aug-19 05:30N 37°56' E 023°38'2 3.5
2018-Aug-19 05:00N 37°57' E 023°36'3 5.3
2018-Aug-19 04:30N 37°58' E 023°33'3 5.5
2018-Aug-19 04:00N 38°01' E 023°32'1 1.5
2018-Aug-19 03:29N 38°01' E 023°32'0 0.0
2018-Aug-19 00:08N 38°01' E 023°32'0 0.0
2018-Aug-18 23:53N 38°01' E 023°32'0 0.0
2018-Aug-18 22:11N 38°01' E 023°32'0 0.1
2018-Aug-18 22:00N 38°01' E 023°32'1 1.1
2018-Aug-18 21:30N 38°02' E 023°31'1 0.1
2018-Aug-18 15:06N 38°02' E 023°31'0 3.2
2018-Aug-18 15:00N 38°02' E 023°31'0 0.3
2018-Aug-18 13:25N 38°02' E 023°31'0 0.1
2018-Aug-18 12:55N 38°02' E 023°31'1 1.9
2018-Aug-18 12:30N 38°01' E 023°32'3 6.2
2018-Aug-18 12:00N 37°58' E 023°33'3 6.4
2018-Aug-18 11:31N 37°57' E 023°37'1 2.6
2018-Aug-18 10:58N 37°57' E 023°38'0 0.0
2018-Aug-18 10:25N 37°57' E 023°38'0 0.0
2018-Aug-18 09:58N 37°57' E 023°38'0 0.7
2018-Aug-18 09:28N 37°56' E 023°38'0 0.1
2018-Aug-18 08:58N 37°56' E 023°38'0 0.1
2018-Aug-18 08:30N 37°56' E 023°38'0 0.1
2018-Aug-18 07:59N 37°56' E 023°38'0 0.1
2018-Aug-18 07:29N 37°56' E 023°38'0 0.0
2018-Aug-18 06:59N 37°56' E 023°38'0 0.0
2018-Aug-18 06:29N 37°56' E 023°38'0 0.0
2018-Aug-18 06:00N 37°56' E 023°38'0 0.4
2018-Aug-18 05:30N 37°56' E 023°38'2 3.2
2018-Aug-18 05:00N 37°57' E 023°36'0 0.3
2018-Aug-18 04:25N 37°58' E 023°37'0 0.0
2018-Aug-18 03:58N 37°58' E 023°37'0 0.0
2018-Aug-18 03:28N 37°58' E 023°37'0 0.0
2018-Aug-18 02:58N 37°58' E 023°37'0 0.0
2018-Aug-18 02:28N 37°58' E 023°37'0 0.0
2018-Aug-18 01:58N 37°58' E 023°37'0 0.0
2018-Aug-18 01:28N 37°58' E 023°37'0 0.0
2018-Aug-18 00:58N 37°58' E 023°37'0 0.0
2018-Aug-18 00:28N 37°58' E 023°37'0 0.0
2018-Aug-17 23:55N 37°58' E 023°37'0 0.0
2018-Aug-17 23:25N 37°58' E 023°37'0 0.0
2018-Aug-17 22:58N 37°58' E 023°37'0 0.0
2018-Aug-17 22:28N 37°58' E 023°37'0 0.0
2018-Aug-17 21:58N 37°58' E 023°37'0 0.0
2018-Aug-17 21:28N 37°58' E 023°37'0 0.0
2018-Aug-17 20:58N 37°58' E 023°37'0 0.0
2018-Aug-17 20:28N 37°58' E 023°37'0 0.0
2018-Aug-17 19:55N 37°58' E 023°37'0 0.0
2018-Aug-17 19:28N 37°58' E 023°37'0 0.0
2018-Aug-17 18:55N 37°58' E 023°37'0 0.0
2018-Aug-17 18:25N 37°58' E 023°37'0 0.0
2018-Aug-17 17:58N 37°58' E 023°37'0 0.0
2018-Aug-17 17:28N 37°58' E 023°37'0 0.0
2018-Aug-17 16:55N 37°58' E 023°37'0 0.0
2018-Aug-17 16:28N 37°58' E 023°37'0 0.0
2018-Aug-17 15:58N 37°58' E 023°37'0 0.0
2018-Aug-17 15:28N 37°58' E 023°37'0 0.0
2018-Aug-17 14:58N 37°58' E 023°37'0 0.0
2018-Aug-17 13:58N 37°58' E 023°37'0 0.0
2018-Aug-17 13:28N 37°58' E 023°37'0 0.0
2018-Aug-17 12:58N 37°58' E 023°37'0 0.0
2018-Aug-17 12:28N 37°58' E 023°37'0 0.0
2018-Aug-17 11:58N 37°58' E 023°37'0 0.0
2018-Aug-17 11:28N 37°58' E 023°37'0 0.0
2018-Aug-17 10:58N 37°58' E 023°37'0 0.0
2018-Aug-17 10:28N 37°58' E 023°37'0 0.0
2018-Aug-17 09:58N 37°58' E 023°37'0 0.0
2018-Aug-17 09:28N 37°58' E 023°37'0 0.0
2018-Aug-17 08:58N 37°58' E 023°37'0 0.0
2018-Aug-17 08:28N 37°58' E 023°37'0 0.0
2018-Aug-17 07:58N 37°58' E 023°37'0 0.0
2018-Aug-17 07:29N 37°58' E 023°37'0 0.0
2018-Aug-17 06:50N 37°58' E 023°37'0 0.0
2018-Aug-17 06:28N 37°58' E 023°37'0 0.0
2018-Aug-17 05:59N 37°58' E 023°37'2 3.4
2018-Aug-17 05:30N 37°57' E 023°35'2 4.9
2018-Aug-17 05:00N 37°59' E 023°33'3 5.7
2018-Aug-17 04:31N 38°01' E 023°35'0 0.0
2018-Aug-16 23:24N 38°02' E 023°35'0 0.0
2018-Aug-16 22:52N 38°02' E 023°35'1 0.4
2018-Aug-16 21:10N 38°02' E 023°36'0 0.4
2018-Aug-16 20:56N 38°02' E 023°36'2 5.4
2018-Aug-16 20:30N 38°01' E 023°33'2 0.3
2018-Aug-16 13:16N 38°02' E 023°31'0 0.0
2018-Aug-16 12:46N 38°02' E 023°31'0 0.0
2018-Aug-16 12:29N 38°02' E 023°31'0 0.0
2018-Aug-16 11:55N 38°02' E 023°31'0 0.0
2018-Aug-16 11:11N 38°02' E 023°31'0 0.0
2018-Aug-16 10:55N 38°02' E 023°31'0 0.0
2018-Aug-16 09:58N 38°02' E 023°31'1 0.9
2018-Aug-16 09:22N 38°02' E 023°31'2 6.3
2018-Aug-16 09:00N 37°60' E 023°33'3 6.0
2018-Aug-16 08:30N 37°57' E 023°34'3 5.4
2018-Aug-16 07:58N 37°56' E 023°38'0 0.0
2018-Aug-16 07:28N 37°56' E 023°38'0 0.0
2018-Aug-16 07:00N 37°56' E 023°38'0 0.0
2018-Aug-16 06:27N 37°56' E 023°38'0 0.0
2018-Aug-16 05:57N 37°56' E 023°38'0 0.0
2018-Aug-16 05:30N 37°56' E 023°38'1 1.0
2018-Aug-16 05:00N 37°56' E 023°37'1 2.5
2018-Aug-16 04:28N 37°58' E 023°37'0 0.0
2018-Aug-16 04:00N 37°58' E 023°37'0 0.0
2018-Aug-16 03:30N 37°58' E 023°37'0 0.0
2018-Aug-16 03:00N 37°58' E 023°37'0 0.0
2018-Aug-16 02:30N 37°58' E 023°37'0 0.0
2018-Aug-16 02:00N 37°58' E 023°37'0 0.0
2018-Aug-16 01:30N 37°58' E 023°37'0 0.0
2018-Aug-16 01:00N 37°58' E 023°37'0 0.0
2018-Aug-16 00:30N 37°58' E 023°37'0 0.0
2018-Aug-16 00:00N 37°58' E 023°37'0 0.0
2018-Aug-15 23:30N 37°58' E 023°37'0 0.0
2018-Aug-15 23:00N 37°58' E 023°37'0 0.0
2018-Aug-15 22:30N 37°58' E 023°37'0 0.0
2018-Aug-15 22:00N 37°58' E 023°37'0 0.0
2018-Aug-15 21:24N 37°58' E 023°37'0 0.0
2018-Aug-15 21:00N 37°58' E 023°37'0 0.0
2018-Aug-15 20:30N 37°58' E 023°37'0 0.0
2018-Aug-15 20:00N 37°58' E 023°37'0 0.0
2018-Aug-15 19:30N 37°58' E 023°37'0 0.0
2018-Aug-15 19:00N 37°58' E 023°37'0 0.0
2018-Aug-15 18:27N 37°58' E 023°37'0 0.0
2018-Aug-15 18:00N 37°58' E 023°37'0 0.0
2018-Aug-15 17:30N 37°58' E 023°37'0 0.0
2018-Aug-15 17:00N 37°58' E 023°37'0 0.0
2018-Aug-15 16:30N 37°58' E 023°37'0 0.0
2018-Aug-15 16:00N 37°58' E 023°37'0 0.0
2018-Aug-15 15:30N 37°58' E 023°37'0 0.0
2018-Aug-15 15:00N 37°58' E 023°37'0 0.0
2018-Aug-15 14:30N 37°58' E 023°37'0 0.0
2018-Aug-15 14:00N 37°58' E 023°37'0 0.0
2018-Aug-15 13:30N 37°58' E 023°37'0 0.0
2018-Aug-15 13:00N 37°58' E 023°37'0 0.0
2018-Aug-15 12:27N 37°58' E 023°37'0 0.0
2018-Aug-15 12:00N 37°58' E 023°37'0 0.0
2018-Aug-15 11:30N 37°58' E 023°37'0 0.0
2018-Aug-15 11:00N 37°58' E 023°37'0 0.0
2018-Aug-15 10:30N 37°58' E 023°37'0 0.0
2018-Aug-15 10:00N 37°58' E 023°37'0 0.0
2018-Aug-15 09:30N 37°58' E 023°37'0 0.0
2018-Aug-15 09:00N 37°58' E 023°37'0 0.0
2018-Aug-15 08:21N 37°58' E 023°37'0 0.0
2018-Aug-14 23:00N 37°58' E 023°37'0 0.0
2018-Aug-14 22:30N 37°58' E 023°37'0 0.0
2018-Aug-14 22:00N 37°58' E 023°37'0 0.0
2018-Aug-14 21:30N 37°58' E 023°37'0 0.0
2018-Aug-14 21:00N 37°58' E 023°37'0 0.0
2018-Aug-14 20:27N 37°58' E 023°37'0 0.0
2018-Aug-14 20:00N 37°58' E 023°37'0 0.0
2018-Aug-14 19:30N 37°58' E 023°37'0 0.0
2018-Aug-14 19:00N 37°58' E 023°37'0 0.0
2018-Aug-14 18:30N 37°58' E 023°37'0 0.0
2018-Aug-14 18:00N 37°58' E 023°37'0 0.0
2018-Aug-14 17:30N 37°58' E 023°37'0 0.0
2018-Aug-14 17:00N 37°58' E 023°37'0 0.0
2018-Aug-14 16:30N 37°58' E 023°37'0 0.0
2018-Aug-14 16:00N 37°58' E 023°37'0 0.0
2018-Aug-14 15:28N 37°58' E 023°37'1 2.3
2018-Aug-14 15:01N 37°56' E 023°37'1 2.3
2018-Aug-14 14:29N 37°56' E 023°38'0 0.0
2018-Aug-14 13:59N 37°56' E 023°38'0 0.0
2018-Aug-14 13:29N 37°56' E 023°38'0 0.0
2018-Aug-14 12:59N 37°56' E 023°38'0 0.1
2018-Aug-14 12:29N 37°56' E 023°38'0 0.0
2018-Aug-14 11:59N 37°56' E 023°38'0 0.0
2018-Aug-14 11:29N 37°56' E 023°38'0 0.1
2018-Aug-14 10:59N 37°56' E 023°38'0 0.7
2018-Aug-14 10:30N 37°57' E 023°38'0 0.0
2018-Aug-14 10:00N 37°57' E 023°38'0 0.0
2018-Aug-14 09:30N 37°57' E 023°38'0 0.0
2018-Aug-14 09:00N 37°57' E 023°38'0 0.0
2018-Aug-14 08:30N 37°57' E 023°38'0 0.0
2018-Aug-14 08:00N 37°57' E 023°38'0 0.4
2018-Aug-14 07:30N 37°57' E 023°38'1 1.7
2018-Aug-14 06:59N 37°56' E 023°37'1 2.3
2018-Aug-14 06:28N 37°57' E 023°37'0 0.2
2018-Aug-14 05:58N 37°58' E 023°37'0 0.0
2018-Aug-14 05:28N 37°58' E 023°37'0 0.0
2018-Aug-14 04:55N 37°58' E 023°37'0 0.0
2018-Aug-14 04:22N 37°58' E 023°37'0 0.0
2018-Aug-14 03:59N 37°58' E 023°37'0 0.0
2018-Aug-14 03:29N 37°58' E 023°37'0 0.0
2018-Aug-14 02:56N 37°58' E 023°37'0 0.0
2018-Aug-14 02:29N 37°58' E 023°37'0 0.0
2018-Aug-14 01:59N 37°58' E 023°37'0 0.0
2018-Aug-14 01:29N 37°58' E 023°37'0 0.0
2018-Aug-14 00:59N 37°58' E 023°37'0 0.0
2018-Aug-14 00:29N 37°58' E 023°37'0 0.0
2018-Aug-13 23:59N 37°58' E 023°37'0 0.0
2018-Aug-13 23:29N 37°58' E 023°37'0 0.0
2018-Aug-13 22:59N 37°58' E 023°37'0 0.0
2018-Aug-13 22:29N 37°58' E 023°37'0 0.0
2018-Aug-13 21:59N 37°58' E 023°37'0 0.0
2018-Aug-13 21:29N 37°58' E 023°37'0 0.0
2018-Aug-13 20:59N 37°58' E 023°37'0 0.0
2018-Aug-13 20:29N 37°58' E 023°37'0 0.0
2018-Aug-13 19:59N 37°58' E 023°37'0 0.0
2018-Aug-13 19:23N 37°58' E 023°37'0 0.0
2018-Aug-13 18:59N 37°58' E 023°37'1 2.9
2018-Aug-13 18:30N 37°57' E 023°35'2 4.8
2018-Aug-13 18:00N 37°59' E 023°33'3 5.3
2018-Aug-13 17:30N 38°01' E 023°32'1 0.2
2018-Aug-13 11:08N 38°02' E 023°31'0 2.5
2018-Aug-13 10:57N 38°02' E 023°31'1 1.3
2018-Aug-13 10:30N 38°01' E 023°32'3 6.2
2018-Aug-13 10:01N 37°59' E 023°33'3 5.9
2018-Aug-13 09:31N 37°57' E 023°36'2 3.2
2018-Aug-13 08:54N 37°57' E 023°38'0 0.0
2018-Aug-13 08:30N 37°57' E 023°38'0 0.0
2018-Aug-13 07:57N 37°57' E 023°38'0 0.0
2018-Aug-13 07:30N 37°57' E 023°38'0 0.0
2018-Aug-13 07:00N 37°57' E 023°38'0 0.0
2018-Aug-13 06:30N 37°57' E 023°38'0 0.0
2018-Aug-13 06:00N 37°57' E 023°38'1 2.0
2018-Aug-13 05:31N 37°56' E 023°37'1 2.6
2018-Aug-13 05:00N 37°57' E 023°36'0 0.9
2018-Aug-13 04:29N 37°58' E 023°37'0 0.0
2018-Aug-13 03:55N 37°58' E 023°37'0 0.0
2018-Aug-13 03:28N 37°58' E 023°37'0 0.0
2018-Aug-13 02:58N 37°58' E 023°37'0 0.0
2018-Aug-13 02:28N 37°58' E 023°37'0 0.0
2018-Aug-13 01:58N 37°58' E 023°37'0 0.0
2018-Aug-13 01:22N 37°58' E 023°37'0 0.0
2018-Aug-13 00:58N 37°58' E 023°37'0 0.0
2018-Aug-13 00:28N 37°58' E 023°37'0 0.0
2018-Aug-12 23:58N 37°58' E 023°37'0 0.0
2018-Aug-12 23:28N 37°58' E 023°37'0 0.0
2018-Aug-12 22:58N 37°58' E 023°37'0 0.0
2018-Aug-12 22:28N 37°58' E 023°37'0 0.0
2018-Aug-12 21:58N 37°58' E 023°37'0 0.0
2018-Aug-12 21:28N 37°58' E 023°37'0 0.0
2018-Aug-12 20:58N 37°58' E 023°37'0 0.0
2018-Aug-12 20:28N 37°58' E 023°37'0 0.0
2018-Aug-12 19:58N 37°58' E 023°37'0 0.0
2018-Aug-12 19:28N 37°58' E 023°37'0 0.0
2018-Aug-12 18:58N 37°58' E 023°37'0 0.0
2018-Aug-12 18:28N 37°58' E 023°37'0 0.0
2018-Aug-12 17:58N 37°58' E 023°37'0 0.0
2018-Aug-12 17:28N 37°58' E 023°37'0 0.0
2018-Aug-12 16:58N 37°58' E 023°37'0 0.0
2018-Aug-12 16:28N 37°58' E 023°37'0 0.0
2018-Aug-12 15:58N 37°58' E 023°37'0 0.0
2018-Aug-12 15:25N 37°58' E 023°37'0 0.0
2018-Aug-12 14:58N 37°58' E 023°37'0 0.9
2018-Aug-12 14:30N 37°57' E 023°36'3 5.3
2018-Aug-12 14:00N 37°58' E 023°33'3 5.8
2018-Aug-12 13:30N 38°01' E 023°34'2 0.5
2018-Aug-12 09:58N 38°02' E 023°36'2 4.3
2018-Aug-12 09:30N 38°00' E 023°34'3 5.9
2018-Aug-12 09:00N 37°57' E 023°33'3 4.3
2018-Aug-12 08:25N 37°58' E 023°36'0 0.0
2018-Aug-12 07:58N 37°58' E 023°36'0 0.0
2018-Aug-12 07:28N 37°58' E 023°36'0 0.0
2018-Aug-12 06:58N 37°58' E 023°36'0 0.0
2018-Aug-12 06:22N 37°58' E 023°36'0 0.0
2018-Aug-12 05:55N 37°58' E 023°36'0 0.0
2018-Aug-12 05:28N 37°58' E 023°36'0 0.3
2018-Aug-12 04:58N 37°57' E 023°37'0 0.3
2018-Aug-12 04:30N 37°58' E 023°37'0 0.0
2018-Aug-12 03:57N 37°58' E 023°37'0 0.0
2018-Aug-12 03:30N 37°58' E 023°37'0 0.0
2018-Aug-12 03:00N 37°58' E 023°37'0 0.0
2018-Aug-12 02:30N 37°58' E 023°37'0 0.0
2018-Aug-12 02:00N 37°58' E 023°37'0 0.0
2018-Aug-12 01:30N 37°58' E 023°37'0 0.0
2018-Aug-12 01:00N 37°58' E 023°37'0 0.0
2018-Aug-12 00:30N 37°58' E 023°37'0 0.0
2018-Aug-11 23:57N 37°58' E 023°37'0 0.0
2018-Aug-11 23:30N 37°58' E 023°37'0 0.0
2018-Aug-11 23:00N 37°58' E 023°37'0 0.0
2018-Aug-11 22:30N 37°58' E 023°37'0 0.0
2018-Aug-11 22:00N 37°58' E 023°37'0 0.0
2018-Aug-11 21:30N 37°58' E 023°37'0 0.0
2018-Aug-11 20:57N 37°58' E 023°37'0 0.0
2018-Aug-11 20:30N 37°58' E 023°37'0 0.0
2018-Aug-11 20:00N 37°58' E 023°37'0 0.0
2018-Aug-11 19:30N 37°58' E 023°37'0 0.0
2018-Aug-11 19:00N 37°58' E 023°37'0 0.0
2018-Aug-11 18:30N 37°58' E 023°37'0 0.0
2018-Aug-11 18:00N 37°58' E 023°37'0 0.0
2018-Aug-11 17:30N 37°58' E 023°37'0 0.0
2018-Aug-11 16:54N 37°58' E 023°37'0 0.0
2018-Aug-11 16:30N 37°58' E 023°37'0 0.0
2018-Aug-11 16:00N 37°58' E 023°37'0 0.0
2018-Aug-11 15:27N 37°58' E 023°37'0 0.0
2018-Aug-11 14:51N 37°58' E 023°37'0 0.0
2018-Aug-11 14:30N 37°58' E 023°37'0 0.0
2018-Aug-11 13:57N 37°58' E 023°37'0 0.0
2018-Aug-11 13:30N 37°58' E 023°37'0 0.0
2018-Aug-11 12:56N 37°58' E 023°37'0 0.0
2018-Aug-11 12:29N 37°58' E 023°37'0 0.0
2018-Aug-11 11:59N 37°58' E 023°37'0 0.0
2018-Aug-11 11:29N 37°58' E 023°37'0 0.0
2018-Aug-11 10:59N 37°58' E 023°37'1 1.6
2018-Aug-11 10:30N 37°57' E 023°36'2 3.0
2018-Aug-11 10:00N 37°56' E 023°37'0 0.0
2018-Aug-11 09:30N 37°56' E 023°37'0 0.0
2018-Aug-11 09:00N 37°56' E 023°37'0 0.0
2018-Aug-11 08:30N 37°56' E 023°37'0 0.0
2018-Aug-11 08:00N 37°56' E 023°37'0 0.0
2018-Aug-11 07:29N 37°56' E 023°37'0 0.0
2018-Aug-11 06:59N 37°56' E 023°37'0 0.0
2018-Aug-11 06:29N 37°56' E 023°37'0 0.0
2018-Aug-11 05:59N 37°56' E 023°37'1 2.3
2018-Aug-11 05:30N 37°57' E 023°36'1 1.5
2018-Aug-11 04:57N 37°57' E 023°37'0 0.4
2018-Aug-11 04:30N 37°58' E 023°37'0 0.0
2018-Aug-11 03:55N 37°58' E 023°37'0 0.0
2018-Aug-11 03:28N 37°58' E 023°37'0 0.0
2018-Aug-11 02:58N 37°58' E 023°37'0 0.0
2018-Aug-11 02:28N 37°58' E 023°37'0 0.0
2018-Aug-11 01:58N 37°58' E 023°37'0 0.0
2018-Aug-11 01:30N 37°58' E 023°37'0 0.0
2018-Aug-11 01:00N 37°58' E 023°37'  
Track history (hours):
 
Tides and Currents Weather Stations Pressure Air Temp Water Temp Dewpoint Dewpoint Depression Visibility Wind Speed Wind Dir Waves Ship Positions

Agios_nektarios

Last reported at 2018-Aug-21 00:49 UTC. Time now 2018-Aug-21 01:56 UTC.
Position N 38°02' E 023°35'.

Length 53 m; draft 4.9 m.

Type: Tanker. MMSI: 237183800.

Date/timePositionNaut miles runAvg speedWind from/ knotsBaromVisibWave heightAir tempDewpointWater temp
2018-Aug-21 00:49N 38°02' E 023°35'0 0.0
2018-Aug-20 23:06N 38°02' E 023°35'0 0.7
2018-Aug-20 23:01N 38°02' E 023°35'0 3.1
2018-Aug-20 23:00N 38°02' E 023°35'1 0.1
2018-Aug-20 17:35N 38°02' E 023°36'0 0.6
2018-Aug-20 17:29N 38°02' E 023°36'3 6.2
2018-Aug-20 17:03N 37°60' E 023°33'0 7.1
2018-Aug-20 17:00N 37°59' E 023°33'3 5.7
2018-Aug-20 16:30N 37°57' E 023°35'3 5.3
2018-Aug-20 16:02N 37°56' E 023°38'0 0.0
2018-Aug-20 15:59N 37°56' E 023°38'0 0.0
2018-Aug-20 15:29N 37°56' E 023°38'0 0.0
2018-Aug-20 15:02N 37°56' E 023°38'0 0.0
2018-Aug-20 14:59N 37°56' E 023°38'0 0.0
2018-Aug-20 13:59N 37°56' E 023°38'0 0.0
2018-Aug-20 13:29N 37°56' E 023°38'0 0.0
2018-Aug-20 13:02N 37°56' E 023°38'0 0.0
2018-Aug-20 12:59N 37°56' E 023°38'0 0.0
2018-Aug-20 12:29N 37°56' E 023°38'0 0.0
2018-Aug-20 12:02N 37°56' E 023°38'0 0.1
2018-Aug-20 11:59N 37°56' E 023°38'0 0.0
2018-Aug-20 11:29N 37°56' E 023°38'0 0.0
2018-Aug-20 11:03N 37°56' E 023°38'0 0.1
2018-Aug-20 11:00N 37°56' E 023°38'0 0.3
2018-Aug-20 10:28N 37°56' E 023°38'0 0.0
2018-Aug-20 10:01N 37°56' E 023°38'0 0.2
2018-Aug-20 09:58N 37°56' E 023°38'0 0.0
2018-Aug-20 09:28N 37°56' E 023°38'0 0.0
2018-Aug-20 09:01N 37°56' E 023°38'0 0.0
2018-Aug-20 08:58N 37°56' E 023°38'0 0.0
2018-Aug-20 08:28N 37°56' E 023°38'0 0.0
2018-Aug-20 08:01N 37°56' E 023°38'0 0.1
2018-Aug-20 07:58N 37°56' E 023°38'1 1.7
2018-Aug-20 07:31N 37°56' E 023°37'1 2.1
2018-Aug-20 06:58N 37°58' E 023°37'0 0.0
2018-Aug-20 06:30N 37°58' E 023°37'0 0.0
2018-Aug-20 06:03N 37°58' E 023°37'0 0.1
2018-Aug-20 06:00N 37°58' E 023°37'0 0.0
2018-Aug-20 05:30N 37°58' E 023°37'0 0.0
2018-Aug-20 05:03N 37°58' E 023°37'0 0.2
2018-Aug-20 05:00N 37°58' E 023°37'0 0.0
2018-Aug-20 04:45N 37°58' E 023°37'0 0.0
2018-Aug-20 04:24N 37°58' E 023°37'0 0.0
2018-Aug-20 04:00N 37°58' E 023°37'0 0.0
2018-Aug-20 03:30N 37°58' E 023°37'0 0.0
2018-Aug-20 03:00N 37°58' E 023°37'0 0.0
2018-Aug-20 02:30N 37°58' E 023°37'0 0.0
2018-Aug-20 02:00N 37°58' E 023°37'0 0.0
2018-Aug-20 01:30N 37°58' E 023°37'0 0.0
2018-Aug-20 01:00N 37°58' E 023°37'0 0.0
2018-Aug-20 00:30N 37°58' E 023°37'0 0.0
2018-Aug-20 00:00N 37°58' E 023°37'0 0.0
2018-Aug-19 23:30N 37°58' E 023°37'0 0.0
2018-Aug-19 23:00N 37°58' E 023°37'0 0.0
2018-Aug-19 22:30N 37°58' E 023°37'0 0.0
2018-Aug-19 22:00N 37°58' E 023°37'0 0.0
2018-Aug-19 21:30N 37°58' E 023°37'0 0.0
2018-Aug-19 21:00N 37°58' E 023°37'0 0.0
2018-Aug-19 20:30N 37°58' E 023°37'0 0.0
2018-Aug-19 20:00N 37°58' E 023°37'0 0.0
2018-Aug-19 19:30N 37°58' E 023°37'0 0.0
2018-Aug-19 19:00N 37°58' E 023°37'0 0.0
2018-Aug-19 18:30N 37°58' E 023°37'0 0.0
2018-Aug-19 18:00N 37°58' E 023°37'0 0.0
2018-Aug-19 17:30N 37°58' E 023°37'0 0.0
2018-Aug-19 17:00N 37°58' E 023°37'0 0.0
2018-Aug-19 16:30N 37°58' E 023°37'0 0.0
2018-Aug-19 15:57N 37°58' E 023°37'0 0.5
2018-Aug-19 15:30N 37°57' E 023°36'2 5.0
2018-Aug-19 15:00N 37°57' E 023°33'3 5.4
2018-Aug-19 14:30N 38°00' E 023°33'3 4.3
2018-Aug-19 13:54N 38°02' E 023°31'0 0.0
2018-Aug-19 13:15N 38°02' E 023°31'0 0.0
2018-Aug-19 11:45N 38°02' E 023°31'0 0.0
2018-Aug-19 10:40N 38°02' E 023°31'0 0.4
2018-Aug-19 10:29N 38°02' E 023°31'2 4.2
2018-Aug-19 10:00N 38°00' E 023°32'3 5.4
2018-Aug-19 09:30N 37°58' E 023°33'3 5.6
2018-Aug-19 09:00N 37°57' E 023°36'2 3.2
2018-Aug-19 08:30N 37°56' E 023°38'0 0.0
2018-Aug-19 07:59N 37°56' E 023°38'0 0.0
2018-Aug-19 07:28N 37°56' E 023°38'0 0.0
2018-Aug-19 06:58N 37°56' E 023°38'0 0.0
2018-Aug-19 06:28N 37°56' E 023°38'0 0.0
2018-Aug-19 05:58N 37°56' E 023°38'0 0.0
2018-Aug-19 05:30N 37°56' E 023°38'2 3.5
2018-Aug-19 05:00N 37°57' E 023°36'3 5.3
2018-Aug-19 04:30N 37°58' E 023°33'3 5.5
2018-Aug-19 04:00N 38°01' E 023°32'1 1.5
2018-Aug-19 03:29N 38°01' E 023°32'0 0.0
2018-Aug-19 00:08N 38°01' E 023°32'0 0.0
2018-Aug-18 23:53N 38°01' E 023°32'0 0.0
2018-Aug-18 22:11N 38°01' E 023°32'0 0.1
2018-Aug-18 22:00N 38°01' E 023°32'1 1.1
2018-Aug-18 21:30N 38°02' E 023°31'1 0.1
2018-Aug-18 15:06N 38°02' E 023°31'0 3.2
2018-Aug-18 15:00N 38°02' E 023°31'0 0.3
2018-Aug-18 13:25N 38°02' E 023°31'0 0.1
2018-Aug-18 12:55N 38°02' E 023°31'1 1.9
2018-Aug-18 12:30N 38°01' E 023°32'3 6.2
2018-Aug-18 12:00N 37°58' E 023°33'3 6.4
2018-Aug-18 11:31N 37°57' E 023°37'1 2.6
2018-Aug-18 10:58N 37°57' E 023°38'0 0.0
2018-Aug-18 10:25N 37°57' E 023°38'0 0.0
2018-Aug-18 09:58N 37°57' E 023°38'0 0.7
2018-Aug-18 09:28N 37°56' E 023°38'0 0.1
2018-Aug-18 08:58N 37°56' E 023°38'0 0.1
2018-Aug-18 08:30N 37°56' E 023°38'0 0.1
2018-Aug-18 07:59N 37°56' E 023°38'0 0.1
2018-Aug-18 07:29N 37°56' E 023°38'0 0.0
2018-Aug-18 06:59N 37°56' E 023°38'0 0.0
2018-Aug-18 06:29N 37°56' E 023°38'0 0.0
2018-Aug-18 06:00N 37°56' E 023°38'0 0.4
2018-Aug-18 05:30N 37°56' E 023°38'2 3.2
2018-Aug-18 05:00N 37°57' E 023°36'0 0.3
2018-Aug-18 04:25N 37°58' E 023°37'0 0.0
2018-Aug-18 03:58N 37°58' E 023°37'0 0.0
2018-Aug-18 03:28N 37°58' E 023°37'0 0.0
2018-Aug-18 02:58N 37°58' E 023°37'0 0.0
2018-Aug-18 02:28N 37°58' E 023°37'0 0.0
2018-Aug-18 01:58N 37°58' E 023°37'0 0.0
2018-Aug-18 01:28N 37°58' E 023°37'0 0.0
2018-Aug-18 00:58N 37°58' E 023°37'0 0.0
2018-Aug-18 00:28N 37°58' E 023°37'0 0.0
2018-Aug-17 23:55N 37°58' E 023°37'0 0.0
2018-Aug-17 23:25N 37°58' E 023°37'0 0.0
2018-Aug-17 22:58N 37°58' E 023°37'0 0.0
2018-Aug-17 22:28N 37°58' E 023°37'0 0.0
2018-Aug-17 21:58N 37°58' E 023°37'0 0.0
2018-Aug-17 21:28N 37°58' E 023°37'0 0.0
2018-Aug-17 20:58N 37°58' E 023°37'0 0.0
2018-Aug-17 20:28N 37°58' E 023°37'0 0.0
2018-Aug-17 19:55N 37°58' E 023°37'0 0.0
2018-Aug-17 19:28N 37°58' E 023°37'0 0.0
2018-Aug-17 18:55N 37°58' E 023°37'0 0.0
2018-Aug-17 18:25N 37°58' E 023°37'0 0.0
2018-Aug-17 17:58N 37°58' E 023°37'0 0.0
2018-Aug-17 17:28N 37°58' E 023°37'0 0.0
2018-Aug-17 16:55N 37°58' E 023°37'0 0.0
2018-Aug-17 16:28N 37°58' E 023°37'0 0.0
2018-Aug-17 15:58N 37°58' E 023°37'0 0.0
2018-Aug-17 15:28N 37°58' E 023°37'0 0.0
2018-Aug-17 14:58N 37°58' E 023°37'0 0.0
2018-Aug-17 13:58N 37°58' E 023°37'0 0.0
2018-Aug-17 13:28N 37°58' E 023°37'0 0.0
2018-Aug-17 12:58N 37°58' E 023°37'0 0.0
2018-Aug-17 12:28N 37°58' E 023°37'0 0.0
2018-Aug-17 11:58N 37°58' E 023°37'0 0.0
2018-Aug-17 11:28N 37°58' E 023°37'0 0.0
2018-Aug-17 10:58N 37°58' E 023°37'0 0.0
2018-Aug-17 10:28N 37°58' E 023°37'0 0.0
2018-Aug-17 09:58N 37°58' E 023°37'0 0.0
2018-Aug-17 09:28N 37°58' E 023°37'0 0.0
2018-Aug-17 08:58N 37°58' E 023°37'0 0.0
2018-Aug-17 08:28N 37°58' E 023°37'0 0.0
2018-Aug-17 07:58N 37°58' E 023°37'0 0.0
2018-Aug-17 07:29N 37°58' E 023°37'0 0.0
2018-Aug-17 06:50N 37°58' E 023°37'0 0.0
2018-Aug-17 06:28N 37°58' E 023°37'0 0.0
2018-Aug-17 05:59N 37°58' E 023°37'2 3.4
2018-Aug-17 05:30N 37°57' E 023°35'2 4.9
2018-Aug-17 05:00N 37°59' E 023°33'3 5.7
2018-Aug-17 04:31N 38°01' E 023°35'0 0.0
2018-Aug-16 23:24N 38°02' E 023°35'0 0.0
2018-Aug-16 22:52N 38°02' E 023°35'1 0.4
2018-Aug-16 21:10N 38°02' E 023°36'0 0.4
2018-Aug-16 20:56N 38°02' E 023°36'2 5.4
2018-Aug-16 20:30N 38°01' E 023°33'2 0.3
2018-Aug-16 13:16N 38°02' E 023°31'0 0.0
2018-Aug-16 12:46N 38°02' E 023°31'0 0.0
2018-Aug-16 12:29N 38°02' E 023°31'0 0.0
2018-Aug-16 11:55N 38°02' E 023°31'0 0.0
2018-Aug-16 11:11N 38°02' E 023°31'0 0.0
2018-Aug-16 10:55N 38°02' E 023°31'0 0.0
2018-Aug-16 09:58N 38°02' E 023°31'1 0.9
2018-Aug-16 09:22N 38°02' E 023°31'2 6.3
2018-Aug-16 09:00N 37°60' E 023°33'3 6.0
2018-Aug-16 08:30N 37°57' E 023°34'3 5.4
2018-Aug-16 07:58N 37°56' E 023°38'0 0.0
2018-Aug-16 07:28N 37°56' E 023°38'0 0.0
2018-Aug-16 07:00N 37°56' E 023°38'0 0.0
2018-Aug-16 06:27N 37°56' E 023°38'0 0.0
2018-Aug-16 05:57N 37°56' E 023°38'0 0.0
2018-Aug-16 05:30N 37°56' E 023°38'1 1.0
2018-Aug-16 05:00N 37°56' E 023°37'1 2.5
2018-Aug-16 04:28N 37°58' E 023°37'0 0.0
2018-Aug-16 04:00N 37°58' E 023°37'0 0.0
2018-Aug-16 03:30N 37°58' E 023°37'0 0.0
2018-Aug-16 03:00N 37°58' E 023°37'0 0.0
2018-Aug-16 02:30N 37°58' E 023°37'0 0.0
2018-Aug-16 02:00N 37°58' E 023°37'0 0.0
2018-Aug-16 01:30N 37°58' E 023°37'0 0.0
2018-Aug-16 01:00N 37°58' E 023°37'0 0.0
2018-Aug-16 00:30N 37°58' E 023°37'0 0.0
2018-Aug-16 00:00N 37°58' E 023°37'0 0.0
2018-Aug-15 23:30N 37°58' E 023°37'0 0.0
2018-Aug-15 23:00N 37°58' E 023°37'0 0.0
2018-Aug-15 22:30N 37°58' E 023°37'0 0.0
2018-Aug-15 22:00N 37°58' E 023°37'0 0.0
2018-Aug-15 21:24N 37°58' E 023°37'0 0.0
2018-Aug-15 21:00N 37°58' E 023°37'0 0.0
2018-Aug-15 20:30N 37°58' E 023°37'0 0.0
2018-Aug-15 20:00N 37°58' E 023°37'0 0.0
2018-Aug-15 19:30N 37°58' E 023°37'0 0.0
2018-Aug-15 19:00N 37°58' E 023°37'0 0.0
2018-Aug-15 18:27N 37°58' E 023°37'0 0.0
2018-Aug-15 18:00N 37°58' E 023°37'0 0.0
2018-Aug-15 17:30N 37°58' E 023°37'0 0.0
2018-Aug-15 17:00N 37°58' E 023°37'0 0.0
2018-Aug-15 16:30N 37°58' E 023°37'0 0.0
2018-Aug-15 16:00N 37°58' E 023°37'0 0.0
2018-Aug-15 15:30N 37°58' E 023°37'0 0.0
2018-Aug-15 15:00N 37°58' E 023°37'0 0.0
2018-Aug-15 14:30N 37°58' E 023°37'0 0.0
2018-Aug-15 14:00N 37°58' E 023°37'0 0.0
2018-Aug-15 13:30N 37°58' E 023°37'0 0.0
2018-Aug-15 13:00N 37°58' E 023°37'0 0.0
2018-Aug-15 12:27N 37°58' E 023°37'0 0.0
2018-Aug-15 12:00N 37°58' E 023°37'0 0.0
2018-Aug-15 11:30N 37°58' E 023°37'0 0.0
2018-Aug-15 11:00N 37°58' E 023°37'0 0.0
2018-Aug-15 10:30N 37°58' E 023°37'0 0.0
2018-Aug-15 10:00N 37°58' E 023°37'0 0.0
2018-Aug-15 09:30N 37°58' E 023°37'0 0.0
2018-Aug-15 09:00N 37°58' E 023°37'0 0.0
2018-Aug-15 08:21N 37°58' E 023°37'0 0.0
2018-Aug-14 23:00N 37°58' E 023°37'0 0.0
2018-Aug-14 22:30N 37°58' E 023°37'0 0.0
2018-Aug-14 22:00N 37°58' E 023°37'0 0.0
2018-Aug-14 21:30N 37°58' E 023°37'0 0.0
2018-Aug-14 21:00N 37°58' E 023°37'0 0.0
2018-Aug-14 20:27N 37°58' E 023°37'0 0.0
2018-Aug-14 20:00N 37°58' E 023°37'0 0.0
2018-Aug-14 19:30N 37°58' E 023°37'0 0.0
2018-Aug-14 19:00N 37°58' E 023°37'0 0.0
2018-Aug-14 18:30N 37°58' E 023°37'0 0.0
2018-Aug-14 18:00N 37°58' E 023°37'0 0.0
2018-Aug-14 17:30N 37°58' E 023°37'0 0.0
2018-Aug-14 17:00N 37°58' E 023°37'0 0.0
2018-Aug-14 16:30N 37°58' E 023°37'0 0.0
2018-Aug-14 16:00N 37°58' E 023°37'0 0.0
2018-Aug-14 15:28N 37°58' E 023°37'1 2.3
2018-Aug-14 15:01N 37°56' E 023°37'1 2.3
2018-Aug-14 14:29N 37°56' E 023°38'0 0.0
2018-Aug-14 13:59N 37°56' E 023°38'0 0.0
2018-Aug-14 13:29N 37°56' E 023°38'0 0.0
2018-Aug-14 12:59N 37°56' E 023°38'0 0.1
2018-Aug-14 12:29N 37°56' E 023°38'0 0.0
2018-Aug-14 11:59N 37°56' E 023°38'0 0.0
2018-Aug-14 11:29N 37°56' E 023°38'0 0.1
2018-Aug-14 10:59N 37°56' E 023°38'0 0.7
2018-Aug-14 10:30N 37°57' E 023°38'0 0.0
2018-Aug-14 10:00N 37°57' E 023°38'0 0.0
2018-Aug-14 09:30N 37°57' E 023°38'0 0.0
2018-Aug-14 09:00N 37°57' E 023°38'0 0.0
2018-Aug-14 08:30N 37°57' E 023°38'0 0.0
2018-Aug-14 08:00N 37°57' E 023°38'0 0.4
2018-Aug-14 07:30N 37°57' E 023°38'1 1.7
2018-Aug-14 06:59N 37°56' E 023°37'1 2.3
2018-Aug-14 06:28N 37°57' E 023°37'0 0.2
2018-Aug-14 05:58N 37°58' E 023°37'0 0.0
2018-Aug-14 05:28N 37°58' E 023°37'0 0.0
2018-Aug-14 04:55N 37°58' E 023°37'0 0.0
2018-Aug-14 04:22N 37°58' E 023°37'0 0.0
2018-Aug-14 03:59N 37°58' E 023°37'0 0.0
2018-Aug-14 03:29N 37°58' E 023°37'0 0.0
2018-Aug-14 02:56N 37°58' E 023°37'0 0.0
2018-Aug-14 02:29N 37°58' E 023°37'0 0.0
2018-Aug-14 01:59N 37°58' E 023°37'0 0.0
2018-Aug-14 01:29N 37°58' E 023°37'0 0.0
2018-Aug-14 00:59N 37°58' E 023°37'0 0.0
2018-Aug-14 00:29N 37°58' E 023°37'0 0.0
2018-Aug-13 23:59N 37°58' E 023°37'0 0.0
2018-Aug-13 23:29N 37°58' E 023°37'0 0.0
2018-Aug-13 22:59N 37°58' E 023°37'0 0.0
2018-Aug-13 22:29N 37°58' E 023°37'0 0.0
2018-Aug-13 21:59N 37°58' E 023°37'0 0.0
2018-Aug-13 21:29N 37°58' E 023°37'0 0.0
2018-Aug-13 20:59N 37°58' E 023°37'0 0.0
2018-Aug-13 20:29N 37°58' E 023°37'0 0.0
2018-Aug-13 19:59N 37°58' E 023°37'0 0.0
2018-Aug-13 19:23N 37°58' E 023°37'0 0.0
2018-Aug-13 18:59N 37°58' E 023°37'1 2.9
2018-Aug-13 18:30N 37°57' E 023°35'2 4.8
2018-Aug-13 18:00N 37°59' E 023°33'3 5.3
2018-Aug-13 17:30N 38°01' E 023°32'1 0.2
2018-Aug-13 11:08N 38°02' E 023°31'0 2.5
2018-Aug-13 10:57N 38°02' E 023°31'1 1.3
2018-Aug-13 10:30N 38°01' E 023°32'3 6.2
2018-Aug-13 10:01N 37°59' E 023°33'3 5.9
2018-Aug-13 09:31N 37°57' E 023°36'2 3.2
2018-Aug-13 08:54N 37°57' E 023°38'0 0.0
2018-Aug-13 08:30N 37°57' E 023°38'0 0.0
2018-Aug-13 07:57N 37°57' E 023°38'0 0.0
2018-Aug-13 07:30N 37°57' E 023°38'0 0.0
2018-Aug-13 07:00N 37°57' E 023°38'0 0.0
2018-Aug-13 06:30N 37°57' E 023°38'0 0.0
2018-Aug-13 06:00N 37°57' E 023°38'1 2.0
2018-Aug-13 05:31N 37°56' E 023°37'1 2.6
2018-Aug-13 05:00N 37°57' E 023°36'0 0.9
2018-Aug-13 04:29N 37°58' E 023°37'0 0.0
2018-Aug-13 03:55N 37°58' E 023°37'0 0.0
2018-Aug-13 03:28N 37°58' E 023°37'0 0.0
2018-Aug-13 02:58N 37°58' E 023°37'0 0.0
2018-Aug-13 02:28N 37°58' E 023°37'0 0.0
2018-Aug-13 01:58N 37°58' E 023°37'0 0.0
2018-Aug-13 01:22N 37°58' E 023°37'0 0.0
2018-Aug-13 00:58N 37°58' E 023°37'0 0.0
2018-Aug-13 00:28N 37°58' E 023°37'0 0.0
2018-Aug-12 23:58N 37°58' E 023°37'0 0.0
2018-Aug-12 23:28N 37°58' E 023°37'0 0.0
2018-Aug-12 22:58N 37°58' E 023°37'0 0.0
2018-Aug-12 22:28N 37°58' E 023°37'0 0.0
2018-Aug-12 21:58N 37°58' E 023°37'0 0.0
2018-Aug-12 21:28N 37°58' E 023°37'0 0.0
2018-Aug-12 20:58N 37°58' E 023°37'0 0.0
2018-Aug-12 20:28N 37°58' E 023°37'0 0.0
2018-Aug-12 19:58N 37°58' E 023°37'0 0.0
2018-Aug-12 19:28N 37°58' E 023°37'0 0.0
2018-Aug-12 18:58N 37°58' E 023°37'0 0.0
2018-Aug-12 18:28N 37°58' E 023°37'0 0.0
2018-Aug-12 17:58N 37°58' E 023°37'0 0.0
2018-Aug-12 17:28N 37°58' E 023°37'0 0.0
2018-Aug-12 16:58N 37°58' E 023°37'0 0.0
2018-Aug-12 16:28N 37°58' E 023°37'0 0.0
2018-Aug-12 15:58N 37°58' E 023°37'0 0.0
2018-Aug-12 15:25N 37°58' E 023°37'0 0.0
2018-Aug-12 14:58N 37°58' E 023°37'0 0.9
2018-Aug-12 14:30N 37°57' E 023°36'3 5.3
2018-Aug-12 14:00N 37°58' E 023°33'3 5.8
2018-Aug-12 13:30N 38°01' E 023°34'2 0.5
2018-Aug-12 09:58N 38°02' E 023°36'2 4.3
2018-Aug-12 09:30N 38°00' E 023°34'3 5.9
2018-Aug-12 09:00N 37°57' E 023°33'3 4.3
2018-Aug-12 08:25N 37°58' E 023°36'0 0.0
2018-Aug-12 07:58N 37°58' E 023°36'0 0.0
2018-Aug-12 07:28N 37°58' E 023°36'0 0.0
2018-Aug-12 06:58N 37°58' E 023°36'0 0.0
2018-Aug-12 06:22N 37°58' E 023°36'0 0.0
2018-Aug-12 05:55N 37°58' E 023°36'0 0.0
2018-Aug-12 05:28N 37°58' E 023°36'0 0.3
2018-Aug-12 04:58N 37°57' E 023°37'0 0.3
2018-Aug-12 04:30N 37°58' E 023°37'0 0.0
2018-Aug-12 03:57N 37°58' E 023°37'0 0.0
2018-Aug-12 03:30N 37°58' E 023°37'0 0.0
2018-Aug-12 03:00N 37°58' E 023°37'0 0.0
2018-Aug-12 02:30N 37°58' E 023°37'0 0.0
2018-Aug-12 02:00N 37°58' E 023°37'0 0.0
2018-Aug-12 01:30N 37°58' E 023°37'0 0.0
2018-Aug-12 01:00N 37°58' E 023°37'0 0.0
2018-Aug-12 00:30N 37°58' E 023°37'0 0.0
2018-Aug-11 23:57N 37°58' E 023°37'0 0.0
2018-Aug-11 23:30N 37°58' E 023°37'0 0.0
2018-Aug-11 23:00N 37°58' E 023°37'0 0.0
2018-Aug-11 22:30N 37°58' E 023°37'0 0.0
2018-Aug-11 22:00N 37°58' E 023°37'0 0.0
2018-Aug-11 21:30N 37°58' E 023°37'0 0.0
2018-Aug-11 20:57N 37°58' E 023°37'0 0.0
2018-Aug-11 20:30N 37°58' E 023°37'0 0.0
2018-Aug-11 20:00N 37°58' E 023°37'0 0.0
2018-Aug-11 19:30N 37°58' E 023°37'0 0.0
2018-Aug-11 19:00N 37°58' E 023°37'0 0.0
2018-Aug-11 18:30N 37°58' E 023°37'0 0.0
2018-Aug-11 18:00N 37°58' E 023°37'0 0.0
2018-Aug-11 17:30N 37°58' E 023°37'0 0.0
2018-Aug-11 16:54N 37°58' E 023°37'0 0.0
2018-Aug-11 16:30N 37°58' E 023°37'0 0.0
2018-Aug-11 16:00N 37°58' E 023°37'0 0.0
2018-Aug-11 15:27N 37°58' E 023°37'0 0.0
2018-Aug-11 14:51N 37°58' E 023°37'0 0.0
2018-Aug-11 14:30N 37°58' E 023°37'0 0.0
2018-Aug-11 13:57N 37°58' E 023°37'0 0.0
2018-Aug-11 13:30N 37°58' E 023°37'0 0.0
2018-Aug-11 12:56N 37°58' E 023°37'0 0.0
2018-Aug-11 12:29N 37°58' E 023°37'0 0.0
2018-Aug-11 11:59N 37°58' E 023°37'0 0.0
2018-Aug-11 11:29N 37°58' E 023°37'0 0.0
2018-Aug-11 10:59N 37°58' E 023°37'1 1.6
2018-Aug-11 10:30N 37°57' E 023°36'2 3.0
2018-Aug-11 10:00N 37°56' E 023°37'0 0.0
2018-Aug-11 09:30N 37°56' E 023°37'0 0.0
2018-Aug-11 09:00N 37°56' E 023°37'0 0.0
2018-Aug-11 08:30N 37°56' E 023°37'0 0.0
2018-Aug-11 08:00N 37°56' E 023°37'0 0.0
2018-Aug-11 07:29N 37°56' E 023°37'0 0.0
2018-Aug-11 06:59N 37°56' E 023°37'0 0.0
2018-Aug-11 06:29N 37°56' E 023°37'0 0.0
2018-Aug-11 05:59N 37°56' E 023°37'1 2.3
2018-Aug-11 05:30N 37°57' E 023°36'1 1.5
2018-Aug-11 04:57N 37°57' E 023°37'0 0.4
2018-Aug-11 04:30N 37°58' E 023°37'0 0.0
2018-Aug-11 03:55N 37°58' E 023°37'0 0.0
2018-Aug-11 03:28N 37°58' E 023°37'0 0.0
2018-Aug-11 02:58N 37°58' E 023°37'0 0.0
2018-Aug-11 02:28N 37°58' E 023°37'0 0.0
2018-Aug-11 01:58N 37°58' E 023°37'0 0.0
2018-Aug-11 01:30N 37°58' E 023°37'0 0.0
2018-Aug-11 01:00N 37°58' E 023°37'  

Dump ship's entire track history